Infanta (Quezon), Philippines

1:11 AM PHT on May 23, 2015 (GMT +0800)
Ninoy Aquino International | | Change Station
CLOSE
Current Station
Airport
Location: Manila,
Elevation: 49 ft
Nearby Weather Stations

Elev 49 ft 14.51 °N, 121.00 °E | Updated 11 minutes ago

Mostly Cloudy
Mostly Cloudy
82 °F
Feels Like 94 °F
N
4
Wind Variable Wind from East

Today
High -- | Low -- °F
--% Chance of Precip.
Yesterday
High -- | Low -- °F
Precip. -- in
5:23 AM 6:16 PM
Waxing Crescent, 22% visible
Pressure 29.86 in
Visibility 6.2 miles
Clouds Scattered Clouds 2300 ft
Mostly Cloudy 10000 ft
Heat Index 94 °F
Dew Point 81 °F
Humidity 94%
Rainfall 0.00 in
Snow Depth Not available.
UV 0 out of 12
Pollen Not available.
Air Quality Not available.
Flu Activity Not available.
METAR RPLL 221700Z 10003KT 050V150 9999 SCT023 BKN100 28/27 Q1011 NOSIG RMK A2985

More Conditions Fewer Conditions

Pressure 29.86 in
Visibility 6.2 miles
Clouds Scattered Clouds 2300 ft
Mostly Cloudy 10000 ft
Heat Index 94 °F
Dew Point 81 °F
Humidity 94%
Rainfall 0.00 in
Snow Depth Not available.
UV 0 out of 12
Pollen Not available.
Air Quality Not available.
Flu Activity Not available.
METAR RPLL 221700Z 10003KT 050V150 9999 SCT023 BKN100 28/27 Q1011 NOSIG RMK A2985

More Conditions Fewer Conditions

10-Day Weather Forecast

Almanac

Astronomy

May. 23, 2015 Rise Set
Actual Time
Civil Twilight
Nautical Twilight
Astronomical Twilight
Moon
Length of Visible Light
Length of Day
Tomorrow will be .
, % of the Moon is Illuminated

Today's Extremes

Country Highs Country Lows

Community

WunderPhotos

Upload Photos

1,823,267 photos uploaded!

WunderBlogs® & News

Nearby

Air Quality

  Air Quality AQ Index Pollutant
Not available.

Snow Depth

Station Depth Elevation

Earthquake Activity

City Distance Mag. Time & Date
Minimum magnitude displayed is 2.5.

Coastal Water Temperatures

Place Temperature

Stations

Nearby Weather Stations

Station Location Temp. Windchill Dew Point Humidity Wind Precip. Elev Updated Type